Hovedside
METAR-TAF:

METAR-TAF

Lufthavner :

Eros Airport

Windhoek, Namibia

breddegrad: 22-36-44S, lengdegrad: 017-04-50E, høyde over havet: 1699 m

Gjeldene værobservasjon

Denne rapporten ble laget for 1 time og 35 minutter siden, klokken 01:00 UTC
Vind 7 kt fra Sør-sørøst
Temperatur 9°C
Luftfuktighet 31%
Trykk 1029 hPa

METAR: FYWE 150100Z AUTO 15007KT //// // ////// 09/M07 Q1029

Tid: 04:35 (02:35 UTC)

Varsel

Denne rapporten ble laget for 9 timer og 35 minutter siden, klokken 17:00 UTC
Varsel gyldig fra 14. klokken 18 UTC til 15. klokken 03 UTC
Vind 5 kt fra Sør-sørvest
Sikt 10 km eller mer
ingen skyer under 1500 m og ingen bygeskyer

TAF: FYWE 141700Z 1418/1503 20005KT CAVOK

Værobservasjoner og værvarsel for over 4000 flyplasser (METAR- og TAF-rapporter).

Tilgjengelige stasjoner er representert av de røde og gule prikkene på kartet.

Hold musepekeren over prikken for å se navnet på stasjonen.

Klikk så for å se værobservasjoner og -varsler.

For å forandre kartet kan du klikke på den grønne knappen med svart kryss for å zoome inn, på den grønne knappen med strek for å zoome ut, eller på de grønne pilene for å se tilstøtende kart.


METAR-TAF: